LIBC

Crotone Airport

Airport
ICAO code
LIBC
IATA Code
CRV
Summary
ICAO Region
EUR
ICAO Territory
Location

Crotone, Calabria

Serving
Crotone
Elevation
521 ft
Coordinates
38° 59' 50" N , 17° 4' 47" E
KCC
Metar
Observation
LIBC 031850Z 09003KT CAVOK 08/06 Q1024
Station
Crotone
Date/Time
2023-02-03 19:50:00
Wind direction
90°
Wind speed
03 kts
Lowest cloud amount
clouds and visibility OK
Temperature
8°C
Dew point
6°C
Humidity
87%
QNH
1024 hPa
Weather condition
n/a

Crotone-Sant'Anna Airport is a minor Italian domestic airport serving Crotone in Calabria.

Climatology

Warm mediterranean climate (Köppen climate classification Csa)

Runways

Designator Length Width Surface Rops
17/35 2000 45 ASP Yes/Yes

Airport map

Aerial View

SKYbrary Partners:

Safety knowledge contributed by: